sensor_id;sensor_type;location;lat;lon;timestamp;temperature;humidity
35027;DHT22;60696;51.426;6.934;2023-06-10T04:00:50;18.10;99.90
35027;DHT22;60696;51.426;6.934;2023-06-10T04:03:16;18.20;99.90
35027;DHT22;60696;51.426;6.934;2023-06-10T04:05:42;18.20;99.90
35027;DHT22;60696;51.426;6.934;2023-06-10T04:08:08;18.20;99.90
35027;DHT22;60696;51.426;6.934;2023-06-10T04:10:34;18.30;99.90
35027;DHT22;60696;51.426;6.934;2023-06-10T04:13:00;18.30;99.90
35027;DHT22;60696;51.426;6.934;2023-06-10T04:15:25;18.30;99.90
35027;DHT22;60696;51.426;6.934;2023-06-10T04:17:51;18.30;99.90
35027;DHT22;60696;51.426;6.934;2023-06-10T04:20:18;18.30;99.90
35027;DHT22;60696;51.426;6.934;2023-06-10T04:22:43;18.40;99.90
35027;DHT22;60696;51.426;6.934;2023-06-10T04:25:09;18.50;99.90
35027;DHT22;60696;51.426;6.934;2023-06-10T04:27:35;18.50;99.90
35027;DHT22;60696;51.426;6.934;2023-06-10T04:30:02;18.50;99.90
35027;DHT22;60696;51.426;6.934;2023-06-10T04:32:29;18.60;99.90
35027;DHT22;60696;51.426;6.934;2023-06-10T04:34:54;18.50;99.90
35027;DHT22;60696;51.426;6.934;2023-06-10T04:37:20;18.50;99.90
35027;DHT22;60696;51.426;6.934;2023-06-10T04:39:46;18.60;99.90
35027;DHT22;60696;51.426;6.934;2023-06-10T04:42:11;18.60;99.90
35027;DHT22;60696;51.426;6.934;2023-06-10T04:44:37;18.80;99.90
35027;DHT22;60696;51.426;6.934;2023-06-10T04:47:02;19.20;99.90
35027;DHT22;60696;51.426;6.934;2023-06-10T04:49:28;19.70;99.90
35027;DHT22;60696;51.426;6.934;2023-06-10T04:51:55;20.10;99.90
35027;DHT22;60696;51.426;6.934;2023-06-10T04:54:20;20.10;99.90
35027;DHT22;60696;51.426;6.934;2023-06-10T04:56:46;20.50;99.90
35027;DHT22;60696;51.426;6.934;2023-06-10T04:59:12;20.60;99.90
35027;DHT22;60696;51.426;6.934;2023-06-10T05:01:37;21.00;99.90
35027;DHT22;60696;51.426;6.934;2023-06-10T05:04:03;21.00;99.90
35027;DHT22;60696;51.426;6.934;2023-06-10T05:06:29;21.20;99.90
35027;DHT22;60696;51.426;6.934;2023-06-10T05:08:55;21.30;99.90
35027;DHT22;60696;51.426;6.934;2023-06-10T05:11:20;21.60;99.00
35027;DHT22;60696;51.426;6.934;2023-06-10T05:13:47;21.60;99.20
35027;DHT22;60696;51.426;6.934;2023-06-10T05:16:12;21.70;98.30
35027;DHT22;60696;51.426;6.934;2023-06-10T05:18:40;21.80;97.50
35027;DHT22;60696;51.426;6.934;2023-06-10T05:21:06;21.80;97.20
35027;DHT22;60696;51.426;6.934;2023-06-10T05:23:31;22.10;97.00
35027;DHT22;60696;51.426;6.934;2023-06-10T05:25:57;22.10;96.00
35027;DHT22;60696;51.426;6.934;2023-06-10T05:28:23;22.30;94.40
35027;DHT22;60696;51.426;6.934;2023-06-10T05:30:49;22.10;94.70
35027;DHT22;60696;51.426;6.934;2023-06-10T05:33:15;22.20;94.70
35027;DHT22;60696;51.426;6.934;2023-06-10T05:35:40;22.50;93.40
35027;DHT22;60696;51.426;6.934;2023-06-10T05:38:06;22.70;92.70
35027;DHT22;60696;51.426;6.934;2023-06-10T05:40:32;22.90;90.80
35027;DHT22;60696;51.426;6.934;2023-06-10T05:42:57;22.80;91.60
35027;DHT22;60696;51.426;6.934;2023-06-10T05:45:23;23.00;90.20
35027;DHT22;60696;51.426;6.934;2023-06-10T05:47:48;23.30;88.70
35027;DHT22;60696;51.426;6.934;2023-06-10T05:50:15;23.60;87.20
35027;DHT22;60696;51.426;6.934;2023-06-10T05:52:40;23.60;85.30
35027;DHT22;60696;51.426;6.934;2023-06-10T05:55:06;23.40;84.90
35027;DHT22;60696;51.426;6.934;2023-06-10T05:57:32;23.50;83.70
35027;DHT22;60696;51.426;6.934;2023-06-10T05:59:58;23.50;83.40
35027;DHT22;60696;51.426;6.934;2023-06-10T06:02:24;23.60;82.80
35027;DHT22;60696;51.426;6.934;2023-06-10T06:04:50;24.10;81.10
35027;DHT22;60696;51.426;6.934;2023-06-10T06:07:16;24.30;79.90
35027;DHT22;60696;51.426;6.934;2023-06-10T06:09:41;25.00;76.90
35027;DHT22;60696;51.426;6.934;2023-06-10T06:12:07;25.80;71.70
35027;DHT22;60696;51.426;6.934;2023-06-10T06:14:37;26.30;69.70
35027;DHT22;60696;51.426;6.934;2023-06-10T06:17:03;26.40;67.70
35027;DHT22;60696;51.426;6.934;2023-06-10T06:19:28;26.90;63.10
35027;DHT22;60696;51.426;6.934;2023-06-10T06:21:54;26.80;62.90
35027;DHT22;60696;51.426;6.934;2023-06-10T06:24:19;27.00;60.20
35027;DHT22;60696;51.426;6.934;2023-06-10T06:26:45;26.70;60.80
35027;DHT22;60696;51.426;6.934;2023-06-10T06:29:11;26.40;64.60
35027;DHT22;60696;51.426;6.934;2023-06-10T06:31:36;27.10;59.20
35027;DHT22;60696;51.426;6.934;2023-06-10T06:34:02;26.60;57.30
35027;DHT22;60696;51.426;6.934;2023-06-10T06:36:27;26.40;60.00
35027;DHT22;60696;51.426;6.934;2023-06-10T06:38:53;26.50;58.10
35027;DHT22;60696;51.426;6.934;2023-06-10T06:41:19;26.60;57.50
35027;DHT22;60696;51.426;6.934;2023-06-10T06:43:44;26.30;56.30
35027;DHT22;60696;51.426;6.934;2023-06-10T06:46:10;26.40;57.40
35027;DHT22;60696;51.426;6.934;2023-06-10T06:48:36;27.10;56.40
35027;DHT22;60696;51.426;6.934;2023-06-10T06:51:01;27.80;53.60
35027;DHT22;60696;51.426;6.934;2023-06-10T06:53:27;27.10;53.80
35027;DHT22;60696;51.426;6.934;2023-06-10T06:55:52;27.10;56.40
35027;DHT22;60696;51.426;6.934;2023-06-10T06:58:18;28.00;54.30
35027;DHT22;60696;51.426;6.934;2023-06-10T07:00:44;28.70;50.30
35027;DHT22;60696;51.426;6.934;2023-06-10T07:03:09;28.00;52.60
35027;DHT22;60696;51.426;6.934;2023-06-10T07:05:35;27.80;51.00
35027;DHT22;60696;51.426;6.934;2023-06-10T07:08:00;28.00;52.00
35027;DHT22;60696;51.426;6.934;2023-06-10T07:10:26;28.40;52.00
35027;DHT22;60696;51.426;6.934;2023-06-10T07:12:53;28.50;51.10
35027;DHT22;60696;51.426;6.934;2023-06-10T07:15:19;28.90;48.00
35027;DHT22;60696;51.426;6.934;2023-06-10T07:17:44;29.20;47.80
35027;DHT22;60696;51.426;6.934;2023-06-10T07:20:10;28.90;48.50
35027;DHT22;60696;51.426;6.934;2023-06-10T07:22:36;28.70;47.40
35027;DHT22;60696;51.426;6.934;2023-06-10T07:25:04;28.90;46.60
35027;DHT22;60696;51.426;6.934;2023-06-10T07:28:08;28.50;48.00
35027;DHT22;60696;51.426;6.934;2023-06-10T07:30:34;28.40;47.00
35027;DHT22;60696;51.426;6.934;2023-06-10T07:33:00;28.00;47.60
35027;DHT22;60696;51.426;6.934;2023-06-10T07:35:27;28.20;46.80
35027;DHT22;60696;51.426;6.934;2023-06-10T07:37:53;28.00;47.80
35027;DHT22;60696;51.426;6.934;2023-06-10T07:40:21;28.60;47.10
35027;DHT22;60696;51.426;6.934;2023-06-10T07:42:46;29.90;46.80
35027;DHT22;60696;51.426;6.934;2023-06-10T07:45:12;29.90;45.00
35027;DHT22;60696;51.426;6.934;2023-06-10T07:47:38;30.40;44.60
35027;DHT22;60696;51.426;6.934;2023-06-10T07:50:04;31.10;43.60
35027;DHT22;60696;51.426;6.934;2023-06-10T07:52:29;30.70;43.60
35027;DHT22;60696;51.426;6.934;2023-06-10T07:54:56;30.40;44.40
35027;DHT22;60696;51.426;6.934;2023-06-10T07:57:22;30.50;44.70
35027;DHT22;60696;51.426;6.934;2023-06-10T07:59:47;31.60;42.80
35027;DHT22;60696;51.426;6.934;2023-06-10T08:02:14;31.70;42.10
35027;DHT22;60696;51.426;6.934;2023-06-10T08:04:39;31.80;41.70
35027;DHT22;60696;51.426;6.934;2023-06-10T08:07:05;31.40;41.10
35027;DHT22;60696;51.426;6.934;2023-06-10T08:09:31;32.40;42.60
35027;DHT22;60696;51.426;6.934;2023-06-10T08:11:56;32.90;42.30
35027;DHT22;60696;51.426;6.934;2023-06-10T08:14:22;33.00;42.40
35027;DHT22;60696;51.426;6.934;2023-06-10T08:16:47;34.40;39.20
35027;DHT22;60696;51.426;6.934;2023-06-10T08:19:13;33.10;37.90
35027;DHT22;60696;51.426;6.934;2023-06-10T08:21:39;33.00;41.60
35027;DHT22;60696;51.426;6.934;2023-06-10T08:24:06;33.40;39.60
35027;DHT22;60696;51.426;6.934;2023-06-10T08:26:32;33.30;39.50
35027;DHT22;60696;51.426;6.934;2023-06-10T08:28:58;33.40;38.10
35027;DHT22;60696;51.426;6.934;2023-06-10T08:31:23;33.10;40.30
35027;DHT22;60696;51.426;6.934;2023-06-10T08:33:49;32.50;40.40
35027;DHT22;60696;51.426;6.934;2023-06-10T08:36:15;33.20;39.30
35027;DHT22;60696;51.426;6.934;2023-06-10T08:38:40;33.40;38.30
35027;DHT22;60696;51.426;6.934;2023-06-10T08:41:06;33.00;37.30
35027;DHT22;60696;51.426;6.934;2023-06-10T08:43:37;32.30;38.40
35027;DHT22;60696;51.426;6.934;2023-06-10T08:46:08;32.40;37.80
35027;DHT22;60696;51.426;6.934;2023-06-10T08:48:35;32.40;39.30
35027;DHT22;60696;51.426;6.934;2023-06-10T08:51:04;33.00;38.40
35027;DHT22;60696;51.426;6.934;2023-06-10T08:53:33;33.40;41.50
35027;DHT22;60696;51.426;6.934;2023-06-10T08:56:02;33.90;38.90
35027;DHT22;60696;51.426;6.934;2023-06-10T08:58:29;33.70;38.90
35027;DHT22;60696;51.426;6.934;2023-06-10T09:00:58;33.00;38.90
35027;DHT22;60696;51.426;6.934;2023-06-10T09:03:25;33.10;37.80
35027;DHT22;60696;51.426;6.934;2023-06-10T09:05:51;33.40;38.60
35027;DHT22;60696;51.426;6.934;2023-06-10T09:08:17;34.30;37.90
35027;DHT22;60696;51.426;6.934;2023-06-10T09:10:42;34.20;39.00
35027;DHT22;60696;51.426;6.934;2023-06-10T09:13:08;35.10;36.60
35027;DHT22;60696;51.426;6.934;2023-06-10T09:15:34;34.40;37.80
35027;DHT22;60696;51.426;6.934;2023-06-10T09:17:59;33.60;36.80
35027;DHT22;60696;51.426;6.934;2023-06-10T09:20:25;33.00;38.80
35027;DHT22;60696;51.426;6.934;2023-06-10T09:22:51;31.80;41.60
35027;DHT22;60696;51.426;6.934;2023-06-10T09:25:17;32.20;40.20
35027;DHT22;60696;51.426;6.934;2023-06-10T09:27:46;32.10;39.20
35027;DHT22;60696;51.426;6.934;2023-06-10T09:30:32;31.80;42.20
35027;DHT22;60696;51.426;6.934;2023-06-10T09:33:03;31.50;41.10
35027;DHT22;60696;51.426;6.934;2023-06-10T09:35:34;31.50;43.10
35027;DHT22;60696;51.426;6.934;2023-06-10T09:38:01;31.40;43.40
35027;DHT22;60696;51.426;6.934;2023-06-10T09:40:28;31.20;41.90
35027;DHT22;60696;51.426;6.934;2023-06-10T09:42:55;31.00;44.40
35027;DHT22;60696;51.426;6.934;2023-06-10T09:45:21;30.90;44.60
35027;DHT22;60696;51.426;6.934;2023-06-10T09:47:51;30.70;44.60
35027;DHT22;60696;51.426;6.934;2023-06-10T09:50:17;30.80;43.60
35027;DHT22;60696;51.426;6.934;2023-06-10T09:52:43;30.60;44.10
35027;DHT22;60696;51.426;6.934;2023-06-10T09:55:10;30.20;44.50
35027;DHT22;60696;51.426;6.934;2023-06-10T09:57:36;30.60;43.60
35027;DHT22;60696;51.426;6.934;2023-06-10T10:00:09;30.50;44.40
35027;DHT22;60696;51.426;6.934;2023-06-10T10:02:52;30.70;43.80
35027;DHT22;60696;51.426;6.934;2023-06-10T10:05:20;30.00;41.90
35027;DHT22;60696;51.426;6.934;2023-06-10T10:07:46;29.70;41.90
35027;DHT22;60696;51.426;6.934;2023-06-10T10:10:14;29.70;41.60
35027;DHT22;60696;51.426;6.934;2023-06-10T10:12:41;29.40;44.40
35027;DHT22;60696;51.426;6.934;2023-06-10T10:15:11;29.80;46.90
35027;DHT22;60696;51.426;6.934;2023-06-10T10:17:40;30.10;43.20
35027;DHT22;60696;51.426;6.934;2023-06-10T10:20:08;30.50;45.00
35027;DHT22;60696;51.426;6.934;2023-06-10T10:22:39;30.70;44.30
35027;DHT22;60696;51.426;6.934;2023-06-10T10:25:17;30.20;46.10
35027;DHT22;60696;51.426;6.934;2023-06-10T10:27:51;29.80;43.40
35027;DHT22;60696;51.426;6.934;2023-06-10T10:30:20;29.80;45.60
35027;DHT22;60696;51.426;6.934;2023-06-10T10:32:56;30.20;43.60
35027;DHT22;60696;51.426;6.934;2023-06-10T10:35:23;30.50;43.50
35027;DHT22;60696;51.426;6.934;2023-06-10T10:37:52;30.10;43.00
35027;DHT22;60696;51.426;6.934;2023-06-10T10:40:17;30.10;43.80
35027;DHT22;60696;51.426;6.934;2023-06-10T10:42:44;30.20;43.90
35027;DHT22;60696;51.426;6.934;2023-06-10T10:45:10;30.20;43.90
35027;DHT22;60696;51.426;6.934;2023-06-10T10:47:36;30.40;42.00
35027;DHT22;60696;51.426;6.934;2023-06-10T10:50:16;29.90;42.20
35027;DHT22;60696;51.426;6.934;2023-06-10T10:52:54;30.10;43.40
35027;DHT22;60696;51.426;6.934;2023-06-10T10:55:20;30.30;43.40
35027;DHT22;60696;51.426;6.934;2023-06-10T10:58:02;30.20;43.20
35027;DHT22;60696;51.426;6.934;2023-06-10T11:03:05;30.20;41.30
35027;DHT22;60696;51.426;6.934;2023-06-10T11:08:02;30.00;40.80
35027;DHT22;60696;51.426;6.934;2023-06-10T11:10:33;29.90;43.30
35027;DHT22;60696;51.426;6.934;2023-06-10T11:12:58;30.20;43.40
35027;DHT22;60696;51.426;6.934;2023-06-10T11:15:26;30.10;42.80
35027;DHT22;60696;51.426;6.934;2023-06-10T11:18:15;30.10;40.80
35027;DHT22;60696;51.426;6.934;2023-06-10T11:23:42;30.40;42.90
35027;DHT22;60696;51.426;6.934;2023-06-10T11:29:06;30.50;41.30
35027;DHT22;60696;51.426;6.934;2023-06-10T11:31:42;30.20;39.20
35027;DHT22;60696;51.426;6.934;2023-06-10T11:34:09;30.00;39.60
35027;DHT22;60696;51.426;6.934;2023-06-10T11:36:40;29.90;39.70
35027;DHT22;60696;51.426;6.934;2023-06-10T11:39:08;30.00;41.60
35027;DHT22;60696;51.426;6.934;2023-06-10T11:41:35;30.20;38.80
35027;DHT22;60696;51.426;6.934;2023-06-10T11:44:08;29.90;38.40
35027;DHT22;60696;51.426;6.934;2023-06-10T11:46:34;29.60;38.80
35027;DHT22;60696;51.426;6.934;2023-06-10T11:49:01;29.70;40.20
35027;DHT22;60696;51.426;6.934;2023-06-10T11:51:33;29.80;40.10
35027;DHT22;60696;51.426;6.934;2023-06-10T11:53:59;29.60;38.90
35027;DHT22;60696;51.426;6.934;2023-06-10T11:56:27;29.60;39.70
35027;DHT22;60696;51.426;6.934;2023-06-10T11:59:03;29.60;38.90
35027;DHT22;60696;51.426;6.934;2023-06-10T12:01:36;29.10;37.30
35027;DHT22;60696;51.426;6.934;2023-06-10T12:04:08;29.30;40.00
35027;DHT22;60696;51.426;6.934;2023-06-10T12:06:44;29.60;40.00
35027;DHT22;60696;51.426;6.934;2023-06-10T12:09:29;29.70;38.80
35027;DHT22;60696;51.426;6.934;2023-06-10T12:12:02;29.70;39.30
35027;DHT22;60696;51.426;6.934;2023-06-10T12:14:50;29.80;38.20
35027;DHT22;60696;51.426;6.934;2023-06-10T12:19:58;29.90;39.10
35027;DHT22;60696;51.426;6.934;2023-06-10T12:22:23;29.90;38.20
35027;DHT22;60696;51.426;6.934;2023-06-10T12:25:04;29.70;38.40
35027;DHT22;60696;51.426;6.934;2023-06-10T12:27:30;29.80;40.90
35027;DHT22;60696;51.426;6.934;2023-06-10T12:29:57;29.90;38.20
35027;DHT22;60696;51.426;6.934;2023-06-10T12:32:40;29.80;39.30
35027;DHT22;60696;51.426;6.934;2023-06-10T12:35:07;29.70;39.00
35027;DHT22;60696;51.426;6.934;2023-06-10T12:37:33;29.60;40.30
35027;DHT22;60696;51.426;6.934;2023-06-10T12:40:03;29.60;39.00
35027;DHT22;60696;51.426;6.934;2023-06-10T12:42:31;29.10;39.50
35027;DHT22;60696;51.426;6.934;2023-06-10T12:44:59;29.30;40.10
35027;DHT22;60696;51.426;6.934;2023-06-10T12:47:35;29.20;38.90
35027;DHT22;60696;51.426;6.934;2023-06-10T12:50:02;29.10;39.70
35027;DHT22;60696;51.426;6.934;2023-06-10T12:52:28;29.10;39.60
35027;DHT22;60696;51.426;6.934;2023-06-10T12:54:54;29.30;41.10
35027;DHT22;60696;51.426;6.934;2023-06-10T12:57:21;29.30;39.60
35027;DHT22;60696;51.426;6.934;2023-06-10T12:59:46;29.20;41.10
35027;DHT22;60696;51.426;6.934;2023-06-10T13:02:18;29.30;40.30
35027;DHT22;60696;51.426;6.934;2023-06-10T13:04:45;29.10;38.90
35027;DHT22;60696;51.426;6.934;2023-06-10T13:07:11;29.20;40.60
35027;DHT22;60696;51.426;6.934;2023-06-10T13:09:37;29.00;40.30
35027;DHT22;60696;51.426;6.934;2023-06-10T13:12:03;29.10;41.50
35027;DHT22;60696;51.426;6.934;2023-06-10T13:14:28;29.30;40.60
35027;DHT22;60696;51.426;6.934;2023-06-10T13:16:55;29.20;40.40
35027;DHT22;60696;51.426;6.934;2023-06-10T13:19:21;29.20;40.80
35027;DHT22;60696;51.426;6.934;2023-06-10T13:21:47;29.10;39.40
35027;DHT22;60696;51.426;6.934;2023-06-10T13:24:13;29.30;41.10
35027;DHT22;60696;51.426;6.934;2023-06-10T13:26:38;29.50;40.90
35027;DHT22;60696;51.426;6.934;2023-06-10T13:29:04;29.30;40.40
35027;DHT22;60696;51.426;6.934;2023-06-10T13:31:30;29.30;39.80
35027;DHT22;60696;51.426;6.934;2023-06-10T13:33:56;29.40;40.20
35027;DHT22;60696;51.426;6.934;2023-06-10T13:36:22;29.00;40.30
35027;DHT22;60696;51.426;6.934;2023-06-10T13:38:48;29.10;41.30
35027;DHT22;60696;51.426;6.934;2023-06-10T13:41:14;29.30;40.70
35027;DHT22;60696;51.426;6.934;2023-06-10T13:43:39;29.00;39.60
35027;DHT22;60696;51.426;6.934;2023-06-10T13:46:05;28.90;40.60
35027;DHT22;60696;51.426;6.934;2023-06-10T13:48:31;29.00;40.60
35027;DHT22;60696;51.426;6.934;2023-06-10T13:50:56;28.90;39.10
35027;DHT22;60696;51.426;6.934;2023-06-10T13:53:22;28.90;39.90
35027;DHT22;60696;51.426;6.934;2023-06-10T13:55:48;28.90;39.90
35027;DHT22;60696;51.426;6.934;2023-06-10T13:58:13;29.00;40.60
35027;DHT22;60696;51.426;6.934;2023-06-10T14:00:39;28.80;40.10
35027;DHT22;60696;51.426;6.934;2023-06-10T14:03:04;28.70;40.20
35027;DHT22;60696;51.426;6.934;2023-06-10T14:05:30;28.70;40.50
35027;DHT22;60696;51.426;6.934;2023-06-10T14:07:56;28.80;40.20
35027;DHT22;60696;51.426;6.934;2023-06-10T14:10:21;28.90;39.20
35027;DHT22;60696;51.426;6.934;2023-06-10T14:12:47;28.90;39.10
35027;DHT22;60696;51.426;6.934;2023-06-10T14:15:13;28.90;40.50
35027;DHT22;60696;51.426;6.934;2023-06-10T14:17:39;29.00;40.30
35027;DHT22;60696;51.426;6.934;2023-06-10T14:20:05;29.10;39.70
35027;DHT22;60696;51.426;6.934;2023-06-10T14:22:30;29.10;38.40
35027;DHT22;60696;51.426;6.934;2023-06-10T14:24:56;29.00;38.20
35027;DHT22;60696;51.426;6.934;2023-06-10T14:27:22;29.10;39.10
35027;DHT22;60696;51.426;6.934;2023-06-10T14:29:47;29.20;39.50
35027;DHT22;60696;51.426;6.934;2023-06-10T14:32:13;29.20;38.70
35027;DHT22;60696;51.426;6.934;2023-06-10T14:34:39;29.30;39.00
35027;DHT22;60696;51.426;6.934;2023-06-10T14:37:05;29.30;39.90
35027;DHT22;60696;51.426;6.934;2023-06-10T14:39:33;29.30;39.30
35027;DHT22;60696;51.426;6.934;2023-06-10T14:41:58;29.20;39.70
35027;DHT22;60696;51.426;6.934;2023-06-10T14:44:24;29.10;39.20
35027;DHT22;60696;51.426;6.934;2023-06-10T14:46:50;29.00;39.80
35027;DHT22;60696;51.426;6.934;2023-06-10T14:49:15;29.10;39.60
35027;DHT22;60696;51.426;6.934;2023-06-10T14:51:41;29.20;39.80
35027;DHT22;60696;51.426;6.934;2023-06-10T14:54:06;29.10;39.80
35027;DHT22;60696;51.426;6.934;2023-06-10T14:56:32;29.20;40.40
35027;DHT22;60696;51.426;6.934;2023-06-10T14:58:57;29.20;39.90
35027;DHT22;60696;51.426;6.934;2023-06-10T15:01:23;29.10;39.60
35027;DHT22;60696;51.426;6.934;2023-06-10T15:03:49;28.90;40.40
35027;DHT22;60696;51.426;6.934;2023-06-10T15:06:14;28.80;40.10
35027;DHT22;60696;51.426;6.934;2023-06-10T15:08:46;28.80;40.20
35027;DHT22;60696;51.426;6.934;2023-06-10T15:11:17;28.90;41.80
35027;DHT22;60696;51.426;6.934;2023-06-10T15:13:42;29.10;39.80
35027;DHT22;60696;51.426;6.934;2023-06-10T15:16:08;28.90;39.20
35027;DHT22;60696;51.426;6.934;2023-06-10T15:18:34;28.90;39.50
35027;DHT22;60696;51.426;6.934;2023-06-10T15:20:59;28.90;39.70
35027;DHT22;60696;51.426;6.934;2023-06-10T15:23:25;29.00;40.10
35027;DHT22;60696;51.426;6.934;2023-06-10T15:25:51;29.00;40.50
35027;DHT22;60696;51.426;6.934;2023-06-10T15:28:17;28.90;40.30
35027;DHT22;60696;51.426;6.934;2023-06-10T15:30:42;28.80;40.00
35027;DHT22;60696;51.426;6.934;2023-06-10T15:33:08;28.80;40.30
35027;DHT22;60696;51.426;6.934;2023-06-10T15:35:34;28.80;39.20
35027;DHT22;60696;51.426;6.934;2023-06-10T15:37:59;28.80;39.50
35027;DHT22;60696;51.426;6.934;2023-06-10T15:40:25;28.80;39.60
35027;DHT22;60696;51.426;6.934;2023-06-10T15:42:51;28.70;39.30
35027;DHT22;60696;51.426;6.934;2023-06-10T15:45:17;28.70;39.10
35027;DHT22;60696;51.426;6.934;2023-06-10T15:47:42;28.50;39.50
35027;DHT22;60696;51.426;6.934;2023-06-10T15:50:08;28.50;39.40
35027;DHT22;60696;51.426;6.934;2023-06-10T15:52:34;28.60;39.80
35027;DHT22;60696;51.426;6.934;2023-06-10T15:55:00;28.70;39.90
35027;DHT22;60696;51.426;6.934;2023-06-10T15:57:27;28.70;38.80
35027;DHT22;60696;51.426;6.934;2023-06-10T15:59:53;28.60;40.50
35027;DHT22;60696;51.426;6.934;2023-06-10T16:02:19;28.60;40.20
35027;DHT22;60696;51.426;6.934;2023-06-10T16:04:45;28.60;41.10
35027;DHT22;60696;51.426;6.934;2023-06-10T16:07:11;28.60;40.00
35027;DHT22;60696;51.426;6.934;2023-06-10T16:09:36;28.60;40.60
35027;DHT22;60696;51.426;6.934;2023-06-10T16:12:02;28.50;40.70
35027;DHT22;60696;51.426;6.934;2023-06-10T16:14:28;28.50;39.70
35027;DHT22;60696;51.426;6.934;2023-06-10T16:16:54;28.50;40.40
35027;DHT22;60696;51.426;6.934;2023-06-10T16:19:23;28.50;40.60
35027;DHT22;60696;51.426;6.934;2023-06-10T16:21:49;28.40;40.40
35027;DHT22;60696;51.426;6.934;2023-06-10T16:24:15;28.30;40.80
35027;DHT22;60696;51.426;6.934;2023-06-10T16:26:41;28.30;40.90
35027;DHT22;60696;51.426;6.934;2023-06-10T16:29:06;28.30;41.80
35027;DHT22;60696;51.426;6.934;2023-06-10T16:31:32;28.30;40.90
35027;DHT22;60696;51.426;6.934;2023-06-10T16:33:58;28.40;41.30
35027;DHT22;60696;51.426;6.934;2023-06-10T16:36:23;28.40;41.90
35027;DHT22;60696;51.426;6.934;2023-06-10T16:38:49;28.40;42.00
35027;DHT22;60696;51.426;6.934;2023-06-10T16:41:15;28.30;41.30
35027;DHT22;60696;51.426;6.934;2023-06-10T16:43:41;28.20;41.40
35027;DHT22;60696;51.426;6.934;2023-06-10T16:46:07;28.20;42.10
35027;DHT22;60696;51.426;6.934;2023-06-10T16:48:32;28.10;42.90
35027;DHT22;60696;51.426;6.934;2023-06-10T16:50:58;28.20;42.20
35027;DHT22;60696;51.426;6.934;2023-06-10T16:53:23;28.20;42.50
35027;DHT22;60696;51.426;6.934;2023-06-10T16:55:49;28.10;41.90
35027;DHT22;60696;51.426;6.934;2023-06-10T16:58:15;28.10;42.20
35027;DHT22;60696;51.426;6.934;2023-06-10T17:00:40;28.00;42.20
35027;DHT22;60696;51.426;6.934;2023-06-10T17:03:11;28.00;42.90
35027;DHT22;60696;51.426;6.934;2023-06-10T17:05:36;28.10;43.60
35027;DHT22;60696;51.426;6.934;2023-06-10T17:08:02;28.00;42.80
35027;DHT22;60696;51.426;6.934;2023-06-10T17:10:28;28.00;42.90
35027;DHT22;60696;51.426;6.934;2023-06-10T17:12:53;27.90;42.40
35027;DHT22;60696;51.426;6.934;2023-06-10T17:15:19;27.90;43.30
35027;DHT22;60696;51.426;6.934;2023-06-10T17:17:45;27.90;44.00
35027;DHT22;60696;51.426;6.934;2023-06-10T17:20:11;27.90;43.50
35027;DHT22;60696;51.426;6.934;2023-06-10T17:22:37;27.90;43.80
35027;DHT22;60696;51.426;6.934;2023-06-10T17:25:03;27.80;43.40
35027;DHT22;60696;51.426;6.934;2023-06-10T17:27:29;27.80;43.70
35027;DHT22;60696;51.426;6.934;2023-06-10T17:29:54;27.80;44.20
35027;DHT22;60696;51.426;6.934;2023-06-10T17:32:20;27.80;44.10
35027;DHT22;60696;51.426;6.934;2023-06-10T17:34:46;27.80;44.00
35027;DHT22;60696;51.426;6.934;2023-06-10T17:37:11;27.80;43.40
35027;DHT22;60696;51.426;6.934;2023-06-10T17:39:37;27.70;44.20
35027;DHT22;60696;51.426;6.934;2023-06-10T17:42:03;27.80;44.30
35027;DHT22;60696;51.426;6.934;2023-06-10T17:44:28;27.70;44.70
35027;DHT22;60696;51.426;6.934;2023-06-10T17:46:56;27.70;44.60
35027;DHT22;60696;51.426;6.934;2023-06-10T17:49:22;27.60;44.20
35027;DHT22;60696;51.426;6.934;2023-06-10T17:51:49;27.60;44.80
35027;DHT22;60696;51.426;6.934;2023-06-10T17:54:18;27.50;44.80
35027;DHT22;60696;51.426;6.934;2023-06-10T17:56:45;27.50;44.90
35027;DHT22;60696;51.426;6.934;2023-06-10T17:59:11;27.50;45.30
35027;DHT22;60696;51.426;6.934;2023-06-10T18:01:37;27.50;44.30
35027;DHT22;60696;51.426;6.934;2023-06-10T18:04:03;27.40;45.00
35027;DHT22;60696;51.426;6.934;2023-06-10T18:06:30;27.50;45.40
35027;DHT22;60696;51.426;6.934;2023-06-10T18:08:56;27.40;45.00
35027;DHT22;60696;51.426;6.934;2023-06-10T18:11:21;27.40;45.40
35027;DHT22;60696;51.426;6.934;2023-06-10T18:13:49;27.30;45.70
35027;DHT22;60696;51.426;6.934;2023-06-10T18:16:15;27.30;45.50
35027;DHT22;60696;51.426;6.934;2023-06-10T18:18:40;27.30;45.30
35027;DHT22;60696;51.426;6.934;2023-06-10T18:21:08;27.30;45.50
35027;DHT22;60696;51.426;6.934;2023-06-10T18:23:34;27.30;46.10
35027;DHT22;60696;51.426;6.934;2023-06-10T18:25:59;27.20;45.70
35027;DHT22;60696;51.426;6.934;2023-06-10T18:28:25;27.20;46.00
35027;DHT22;60696;51.426;6.934;2023-06-10T18:30:55;27.10;46.10
35027;DHT22;60696;51.426;6.934;2023-06-10T18:33:21;27.10;46.10
35027;DHT22;60696;51.426;6.934;2023-06-10T18:35:47;27.00;46.40
35027;DHT22;60696;51.426;6.934;2023-06-10T18:38:13;27.00;47.00
35027;DHT22;60696;51.426;6.934;2023-06-10T18:40:38;27.00;46.60
35027;DHT22;60696;51.426;6.934;2023-06-10T18:43:04;27.00;46.70
35027;DHT22;60696;51.426;6.934;2023-06-10T18:45:29;26.90;46.60
35027;DHT22;60696;51.426;6.934;2023-06-10T18:47:55;26.90;47.10
35027;DHT22;60696;51.426;6.934;2023-06-10T18:50:21;26.80;47.40
35027;DHT22;60696;51.426;6.934;2023-06-10T18:52:46;26.80;47.60
35027;DHT22;60696;51.426;6.934;2023-06-10T18:55:12;26.70;48.40
35027;DHT22;60696;51.426;6.934;2023-06-10T18:57:38;26.60;49.00
35027;DHT22;60696;51.426;6.934;2023-06-10T19:00:03;26.60;49.50
35027;DHT22;60696;51.426;6.934;2023-06-10T19:02:29;26.60;50.60
35027;DHT22;60696;51.426;6.934;2023-06-10T19:04:55;26.50;50.70
35027;DHT22;60696;51.426;6.934;2023-06-10T19:07:21;26.40;51.10
35027;DHT22;60696;51.426;6.934;2023-06-10T19:09:46;26.40;51.00
35027;DHT22;60696;51.426;6.934;2023-06-10T19:12:12;26.30;50.80
35027;DHT22;60696;51.426;6.934;2023-06-10T19:14:38;26.30;50.90
35027;DHT22;60696;51.426;6.934;2023-06-10T19:17:05;26.20;51.10
35027;DHT22;60696;51.426;6.934;2023-06-10T19:19:31;26.20;51.60
35027;DHT22;60696;51.426;6.934;2023-06-10T19:21:56;26.10;51.70
35027;DHT22;60696;51.426;6.934;2023-06-10T19:24:22;26.10;51.50
35027;DHT22;60696;51.426;6.934;2023-06-10T19:26:48;26.00;51.80
35027;DHT22;60696;51.426;6.934;2023-06-10T19:29:13;25.90;52.10
35027;DHT22;60696;51.426;6.934;2023-06-10T19:31:39;25.90;51.80
35027;DHT22;60696;51.426;6.934;2023-06-10T19:34:04;25.80;52.10
35027;DHT22;60696;51.426;6.934;2023-06-10T19:36:30;25.80;52.20
35027;DHT22;60696;51.426;6.934;2023-06-10T19:38:56;25.70;52.10
35027;DHT22;60696;51.426;6.934;2023-06-10T19:41:21;25.70;52.50